createdAt,value
2018-10-03T00:00:45.182Z,11.00
2018-10-03T00:03:14.064Z,11.00
2018-10-03T00:05:42.984Z,11.00
2018-10-03T00:08:11.858Z,11.10
2018-10-03T00:10:40.770Z,11.10
2018-10-03T00:13:09.671Z,11.00
2018-10-03T00:15:38.615Z,11.10
2018-10-03T00:18:07.523Z,11.00
2018-10-03T00:20:36.408Z,11.10
2018-10-03T00:23:05.610Z,11.00
2018-10-03T00:25:34.503Z,11.00
2018-10-03T00:28:03.380Z,11.00
2018-10-03T00:30:32.254Z,11.00
2018-10-03T00:33:01.139Z,11.00
2018-10-03T00:35:30.015Z,11.00
2018-10-03T00:37:58.900Z,11.00
2018-10-03T00:40:27.830Z,11.00
2018-10-03T00:42:56.686Z,11.00
2018-10-03T00:45:25.578Z,11.00
2018-10-03T00:47:54.458Z,10.90
2018-10-03T00:50:23.357Z,11.00
2018-10-03T00:52:52.230Z,11.00
2018-10-03T00:55:21.254Z,11.00
2018-10-03T00:57:50.123Z,11.00
2018-10-03T01:00:19.003Z,11.00
2018-10-03T01:02:47.910Z,11.00
2018-10-03T01:05:17.005Z,11.00
2018-10-03T01:07:45.877Z,11.00
2018-10-03T01:10:14.759Z,11.00
2018-10-03T01:12:43.646Z,11.10
2018-10-03T01:15:12.530Z,11.00
2018-10-03T01:17:41.423Z,11.00
2018-10-03T01:20:10.342Z,11.00
2018-10-03T01:22:39.256Z,11.10
2018-10-03T01:25:08.192Z,11.00
2018-10-03T01:27:37.103Z,11.00
2018-10-03T01:30:06.902Z,11.00
2018-10-03T01:32:35.793Z,11.00
2018-10-03T01:35:04.798Z,11.10
2018-10-03T01:37:33.699Z,11.10
2018-10-03T01:40:02.586Z,11.10
2018-10-03T01:42:31.483Z,11.10
2018-10-03T01:45:00.371Z,11.10
2018-10-03T01:47:29.266Z,11.10
2018-10-03T01:49:58.134Z,11.10
2018-10-03T01:52:27.030Z,11.10
2018-10-03T01:54:55.903Z,11.20
2018-10-03T01:57:24.838Z,11.20
2018-10-03T01:59:53.711Z,11.20
2018-10-03T02:02:22.617Z,11.20
2018-10-03T02:04:51.519Z,11.20
2018-10-03T02:07:20.418Z,11.20
2018-10-03T02:09:49.296Z,11.20
2018-10-03T02:12:18.186Z,11.20
2018-10-03T02:14:47.096Z,11.20
2018-10-03T02:17:16.001Z,11.10
2018-10-03T02:19:44.901Z,11.20
2018-10-03T02:22:13.790Z,11.10
2018-10-03T02:24:42.695Z,11.10
2018-10-03T02:27:11.578Z,11.10
2018-10-03T02:29:40.520Z,11.20
2018-10-03T02:32:09.465Z,11.10
2018-10-03T02:34:38.374Z,11.10
2018-10-03T02:37:07.297Z,11.20
2018-10-03T02:39:36.179Z,11.20
2018-10-03T02:42:05.283Z,11.10
2018-10-03T02:44:34.163Z,11.20
2018-10-03T02:47:03.075Z,11.10
2018-10-03T02:49:31.939Z,11.10
2018-10-03T02:52:00.835Z,11.10
2018-10-03T02:54:29.754Z,11.10
2018-10-03T02:56:58.625Z,11.10
2018-10-03T02:59:27.582Z,11.20
2018-10-03T03:01:56.503Z,11.10
2018-10-03T03:04:25.398Z,11.20
2018-10-03T03:06:54.287Z,11.20
2018-10-03T03:09:23.179Z,11.20
2018-10-03T03:11:52.096Z,11.20
2018-10-03T03:14:21.039Z,11.20
2018-10-03T03:16:49.923Z,11.20
2018-10-03T03:19:18.853Z,11.20
2018-10-03T03:21:47.738Z,11.20
2018-10-03T03:24:16.615Z,11.30
2018-10-03T03:26:45.512Z,11.20
2018-10-03T03:29:14.419Z,11.30
2018-10-03T03:31:43.328Z,11.30
2018-10-03T03:34:12.219Z,11.30
2018-10-03T03:36:41.114Z,11.30
2018-10-03T03:39:10.162Z,11.30
2018-10-03T03:41:39.378Z,11.40
2018-10-03T03:44:08.275Z,11.40
2018-10-03T03:46:37.194Z,11.40
2018-10-03T03:49:06.094Z,11.40
2018-10-03T03:51:34.986Z,11.40
2018-10-03T03:54:03.866Z,11.40
2018-10-03T03:56:32.751Z,11.50
2018-10-03T03:59:01.698Z,11.40
2018-10-03T04:01:30.588Z,11.40
2018-10-03T04:03:59.471Z,11.50
2018-10-03T04:06:29.343Z,11.40
2018-10-03T04:08:58.335Z,11.40
2018-10-03T04:11:27.213Z,11.50
2018-10-03T04:13:56.075Z,11.50
2018-10-03T04:16:24.950Z,11.50
2018-10-03T04:18:57.282Z,11.40
2018-10-03T04:21:30.463Z,11.50
2018-10-03T04:23:59.374Z,11.50
2018-10-03T04:26:28.242Z,11.50
2018-10-03T04:28:57.134Z,11.50
2018-10-03T04:31:26.069Z,11.50
2018-10-03T04:33:54.951Z,11.40
2018-10-03T04:36:24.187Z,11.40
2018-10-03T04:38:53.067Z,11.40
2018-10-03T04:41:22.079Z,11.40
2018-10-03T04:43:50.967Z,11.30
2018-10-03T04:46:20.297Z,11.30
2018-10-03T04:48:49.255Z,11.30
2018-10-03T04:51:18.727Z,11.40
2018-10-03T04:53:47.835Z,11.30
2018-10-03T04:56:16.727Z,11.40
2018-10-03T04:58:45.644Z,11.40
2018-10-03T05:01:14.578Z,11.40
2018-10-03T05:03:43.455Z,11.40
2018-10-03T05:06:12.354Z,11.40
2018-10-03T05:08:41.266Z,11.50
2018-10-03T05:11:10.260Z,11.50
2018-10-03T05:13:39.130Z,11.40
2018-10-03T05:16:08.030Z,11.50
2018-10-03T05:18:36.950Z,11.50
2018-10-03T05:21:06.289Z,11.50
2018-10-03T05:23:35.439Z,11.50
2018-10-03T05:26:04.322Z,11.50
2018-10-03T05:28:33.230Z,11.60
2018-10-03T05:31:02.093Z,11.60
2018-10-03T05:33:31.767Z,11.60
2018-10-03T05:36:00.667Z,11.60
2018-10-03T05:38:29.715Z,11.60
2018-10-03T05:40:58.636Z,11.60
2018-10-03T05:43:27.497Z,11.60
2018-10-03T05:45:56.358Z,11.60
2018-10-03T05:48:25.291Z,11.60
2018-10-03T05:50:54.179Z,11.60
2018-10-03T05:53:23.058Z,11.60
2018-10-03T05:55:51.994Z,11.60
2018-10-03T05:58:20.882Z,11.60
2018-10-03T06:00:49.802Z,11.70
2018-10-03T06:03:18.690Z,11.70
2018-10-03T06:05:47.583Z,11.70
2018-10-03T06:08:16.530Z,11.80
2018-10-03T06:10:45.387Z,11.80
2018-10-03T06:13:14.294Z,11.80
2018-10-03T06:15:43.351Z,11.80
2018-10-03T06:18:12.218Z,11.80
2018-10-03T06:20:41.154Z,11.90
2018-10-03T06:23:10.042Z,11.90
2018-10-03T06:25:38.932Z,11.90
2018-10-03T06:28:07.832Z,11.90
2018-10-03T06:30:36.758Z,11.90
2018-10-03T06:33:05.748Z,11.90
2018-10-03T06:35:34.627Z,12.00
2018-10-03T06:38:03.543Z,12.00
2018-10-03T06:40:32.502Z,12.00
2018-10-03T06:43:01.368Z,12.00
2018-10-03T06:45:30.277Z,11.90
2018-10-03T06:47:59.141Z,11.90
2018-10-03T06:50:28.030Z,11.90
2018-10-03T06:52:57.036Z,11.80
2018-10-03T06:55:25.923Z,11.90
2018-10-03T06:57:54.788Z,11.80
2018-10-03T07:00:23.675Z,11.70
2018-10-03T07:02:52.563Z,11.70
2018-10-03T07:05:21.454Z,11.70
2018-10-03T07:07:50.370Z,11.60
2018-10-03T07:10:19.238Z,11.60
2018-10-03T07:12:48.138Z,11.60
2018-10-03T07:15:17.018Z,11.50
2018-10-03T07:17:45.939Z,11.50
2018-10-03T07:20:14.896Z,11.50
2018-10-03T07:22:43.715Z,11.50
2018-10-03T07:25:12.667Z,11.50
2018-10-03T07:27:41.721Z,11.50
2018-10-03T07:30:10.715Z,11.60
2018-10-03T07:32:39.667Z,11.60
2018-10-03T07:35:08.507Z,11.60
2018-10-03T07:37:37.405Z,11.60
2018-10-03T07:40:06.747Z,11.70
2018-10-03T07:42:35.660Z,11.80
2018-10-03T07:45:04.660Z,11.90
2018-10-03T07:47:33.769Z,11.90
2018-10-03T07:50:02.743Z,11.90
2018-10-03T07:52:31.619Z,12.00
2018-10-03T07:55:00.506Z,12.00
2018-10-03T07:57:29.374Z,12.10
2018-10-03T07:59:58.331Z,12.30
2018-10-03T08:02:27.221Z,12.30
2018-10-03T08:04:56.391Z,12.40
2018-10-03T08:07:25.301Z,12.40
2018-10-03T08:09:54.255Z,12.50
2018-10-03T08:12:23.094Z,12.60
2018-10-03T08:14:52.071Z,12.70
2018-10-03T08:17:21.080Z,12.80
2018-10-03T08:19:49.934Z,13.00
2018-10-03T08:22:18.918Z,13.10
2018-10-03T08:24:47.806Z,13.10
2018-10-03T08:27:16.670Z,13.10
2018-10-03T08:29:45.550Z,13.20
2018-10-03T08:32:14.425Z,13.10
2018-10-03T08:34:43.298Z,13.20
2018-10-03T08:37:13.203Z,13.20
2018-10-03T08:39:42.086Z,13.40
2018-10-03T08:42:11.007Z,13.60
2018-10-03T08:44:40.012Z,13.50
2018-10-03T08:47:08.911Z,13.60
2018-10-03T08:49:37.939Z,13.60
2018-10-03T08:52:07.018Z,13.50
2018-10-03T08:54:35.983Z,13.60
2018-10-03T08:57:04.863Z,13.60
2018-10-03T08:59:33.751Z,13.60
2018-10-03T09:02:02.774Z,13.60
2018-10-03T09:04:31.658Z,13.50
2018-10-03T09:07:00.559Z,13.40
2018-10-03T09:09:29.443Z,13.30
2018-10-03T09:11:58.331Z,13.20
2018-10-03T09:14:27.330Z,13.20
2018-10-03T09:16:56.228Z,13.20
2018-10-03T09:19:25.203Z,13.20
2018-10-03T09:21:54.180Z,13.20
2018-10-03T09:24:23.003Z,13.10
2018-10-03T09:26:52.054Z,13.20
2018-10-03T09:29:20.943Z,13.20
2018-10-03T09:31:50.946Z,13.30
2018-10-03T09:34:19.936Z,13.30
2018-10-03T09:36:48.823Z,13.30
2018-10-03T09:39:17.835Z,13.20
2018-10-03T09:41:46.900Z,13.20
2018-10-03T09:44:15.799Z,13.20
2018-10-03T09:46:44.674Z,13.20
2018-10-03T09:49:13.571Z,13.20
2018-10-03T09:51:42.455Z,13.20
2018-10-03T09:54:11.383Z,13.20
2018-10-03T09:56:40.352Z,13.20
2018-10-03T09:59:09.271Z,13.20
2018-10-03T10:01:38.241Z,13.30
2018-10-03T10:04:07.150Z,13.30
2018-10-03T10:06:36.039Z,13.30
2018-10-03T10:09:07.493Z,13.40
2018-10-03T10:11:36.593Z,13.40
2018-10-03T10:14:05.399Z,13.50
2018-10-03T10:16:34.278Z,13.60
2018-10-03T10:19:03.190Z,13.60
2018-10-03T10:21:32.074Z,13.80
2018-10-03T10:24:00.942Z,13.90
2018-10-03T10:26:29.851Z,14.00
2018-10-03T10:28:58.736Z,14.10
2018-10-03T10:31:27.638Z,14.30
2018-10-03T10:33:56.655Z,14.30
2018-10-03T10:36:26.415Z,14.20
2018-10-03T10:38:55.299Z,14.20
2018-10-03T10:41:24.283Z,14.20
2018-10-03T10:43:53.087Z,14.40
2018-10-03T10:46:21.974Z,14.60
2018-10-03T10:48:50.878Z,14.50
2018-10-03T10:51:19.766Z,14.60
2018-10-03T10:53:48.806Z,14.50
2018-10-03T10:56:17.692Z,14.60
2018-10-03T10:58:46.574Z,14.50
2018-10-03T11:01:15.459Z,14.40
2018-10-03T11:03:44.354Z,14.40
2018-10-03T11:06:13.252Z,14.50
2018-10-03T11:08:42.228Z,14.60
2018-10-03T11:11:11.214Z,15.00
2018-10-03T11:13:40.127Z,15.30
2018-10-03T11:16:09.402Z,15.30
2018-10-03T11:18:38.310Z,15.20
2018-10-03T11:21:07.260Z,15.40
2018-10-03T11:23:36.244Z,15.50
2018-10-03T11:26:05.127Z,15.70
2018-10-03T11:28:34.060Z,15.60
2018-10-03T11:31:04.062Z,15.40
2018-10-03T11:33:33.171Z,15.30
2018-10-03T11:36:02.038Z,15.40
2018-10-03T11:38:30.926Z,15.60
2018-10-03T11:40:59.789Z,16.10
2018-10-03T11:43:28.715Z,16.50
2018-10-03T11:45:57.592Z,16.90
2018-10-03T11:48:26.474Z,17.30
2018-10-03T11:50:55.366Z,17.00
2018-10-03T11:53:24.311Z,16.60
2018-10-03T11:55:53.244Z,16.30
2018-10-03T11:58:22.128Z,16.10
2018-10-03T12:00:51.187Z,16.00
2018-10-03T12:03:20.129Z,16.00
2018-10-03T12:05:49.190Z,15.80
2018-10-03T12:08:18.071Z,15.70
2018-10-03T12:10:46.963Z,15.80
2018-10-03T12:13:15.835Z,15.80
2018-10-03T12:15:44.722Z,15.90
2018-10-03T12:18:13.662Z,16.60
2018-10-03T12:20:42.583Z,16.70
2018-10-03T12:23:11.467Z,16.90
2018-10-03T12:25:40.384Z,17.20
2018-10-03T12:28:09.271Z,17.30
2018-10-03T12:30:38.314Z,17.20
2018-10-03T12:33:07.283Z,17.00
2018-10-03T12:35:36.303Z,16.80
2018-10-03T12:38:05.222Z,16.80
2018-10-03T12:40:34.136Z,16.50
2018-10-03T12:43:03.018Z,16.20
2018-10-03T12:45:31.924Z,16.10
2018-10-03T12:48:00.841Z,16.40
2018-10-03T12:50:29.765Z,16.40
2018-10-03T12:52:58.670Z,16.70
2018-10-03T12:55:27.579Z,17.10
2018-10-03T12:57:56.466Z,17.70
2018-10-03T13:00:29.887Z,18.20
2018-10-03T13:02:59.090Z,18.20
2018-10-03T13:05:28.127Z,18.60
2018-10-03T13:07:57.578Z,18.80
2018-10-03T13:10:26.478Z,19.10
2018-10-03T13:12:55.358Z,18.80
2018-10-03T13:15:24.257Z,18.90
2018-10-03T13:17:53.135Z,18.70
2018-10-03T13:20:22.142Z,18.10
2018-10-03T13:22:51.031Z,17.60
2018-10-03T13:25:19.923Z,17.10
2018-10-03T13:27:48.790Z,16.60
2018-10-03T13:30:17.690Z,16.50
2018-10-03T13:32:46.579Z,16.40
2018-10-03T13:35:15.474Z,16.40
2018-10-03T13:37:44.426Z,16.30
2018-10-03T13:40:13.358Z,16.50
2018-10-03T13:42:42.256Z,16.50
2018-10-03T13:45:11.160Z,17.00
2018-10-03T13:47:40.038Z,17.30
2018-10-03T13:50:09.013Z,17.30
2018-10-03T13:52:37.922Z,17.10
2018-10-03T13:55:06.859Z,16.90
2018-10-03T13:57:35.730Z,16.80
2018-10-03T14:00:04.847Z,16.60
2018-10-03T14:02:33.718Z,16.50
2018-10-03T14:05:02.609Z,16.80
2018-10-03T14:07:31.490Z,17.10
2018-10-03T14:10:00.386Z,17.50
2018-10-03T14:12:29.267Z,18.00
2018-10-03T14:14:58.146Z,17.70
2018-10-03T14:17:27.055Z,17.40
2018-10-03T14:19:55.962Z,17.30
2018-10-03T14:22:24.842Z,16.90
2018-10-03T14:24:53.731Z,17.00
2018-10-03T14:27:22.710Z,17.40
2018-10-03T14:29:51.871Z,17.70
2018-10-03T14:32:20.859Z,18.30
2018-10-03T14:34:50.010Z,17.80
2018-10-03T14:37:18.878Z,17.40
2018-10-03T14:39:47.851Z,17.30
2018-10-03T14:42:16.741Z,17.20
2018-10-03T14:44:45.827Z,17.20
2018-10-03T14:47:14.698Z,16.90
2018-10-03T14:49:43.659Z,16.70
2018-10-03T14:52:12.687Z,16.70
2018-10-03T14:54:41.582Z,16.70
2018-10-03T14:57:10.499Z,16.50
2018-10-03T14:59:39.507Z,16.50
2018-10-03T15:02:08.442Z,16.30
2018-10-03T15:04:37.358Z,16.10
2018-10-03T15:07:06.642Z,16.10
2018-10-03T15:09:35.535Z,16.20
2018-10-03T15:12:04.417Z,16.30
2018-10-03T15:14:33.426Z,16.30
2018-10-03T15:17:02.327Z,16.10
2018-10-03T15:19:31.329Z,16.10
2018-10-03T15:22:00.222Z,16.10
2018-10-03T15:24:29.094Z,16.00
2018-10-03T15:26:58.094Z,15.80
2018-10-03T15:29:27.154Z,15.80
2018-10-03T15:31:56.057Z,15.60
2018-10-03T15:34:25.213Z,15.70
2018-10-03T15:36:54.203Z,15.50
2018-10-03T15:39:23.082Z,15.50
2018-10-03T15:41:52.150Z,15.50
2018-10-03T15:44:21.029Z,15.50
2018-10-03T15:46:49.931Z,15.60
2018-10-03T15:49:19.894Z,15.60
2018-10-03T15:51:48.779Z,15.50
2018-10-03T15:54:17.778Z,15.50
2018-10-03T15:56:46.814Z,15.50
2018-10-03T15:59:15.715Z,15.20
2018-10-03T16:01:45.393Z,15.00
2018-10-03T16:04:14.252Z,14.90
2018-10-03T16:06:43.242Z,14.90
2018-10-03T16:09:12.367Z,14.90
2018-10-03T16:11:41.946Z,14.70
2018-10-03T16:14:11.455Z,14.60
2018-10-03T16:16:40.378Z,14.50
2018-10-03T16:19:09.353Z,14.40
2018-10-03T16:21:38.314Z,14.30
2018-10-03T16:24:07.484Z,14.30
2018-10-03T16:26:36.415Z,14.20
2018-10-03T16:29:05.705Z,14.10
2018-10-03T16:31:34.628Z,14.00
2018-10-03T16:34:03.538Z,14.00
2018-10-03T16:36:32.504Z,14.00
2018-10-03T16:39:01.567Z,13.90
2018-10-03T16:41:30.534Z,13.90
2018-10-03T16:43:59.482Z,13.80
2018-10-03T16:46:28.437Z,13.70
2018-10-03T16:48:57.343Z,13.60
2018-10-03T16:51:26.355Z,13.60
2018-10-03T16:53:55.247Z,13.60
2018-10-03T16:56:24.180Z,13.60
2018-10-03T16:58:53.240Z,13.50
2018-10-03T17:01:22.177Z,13.40
2018-10-03T17:03:51.058Z,13.30
2018-10-03T17:06:19.942Z,13.30
2018-10-03T17:08:48.818Z,13.20
2018-10-03T17:11:19.037Z,13.20
2018-10-03T17:13:59.282Z,13.10
2018-10-03T17:16:28.383Z,13.10
2018-10-03T17:18:57.262Z,13.00
2018-10-03T17:21:26.155Z,12.80
2018-10-03T17:23:55.041Z,12.80
2018-10-03T17:26:23.926Z,12.60
2018-10-03T17:28:53.056Z,12.50
2018-10-03T17:31:22.326Z,12.50
2018-10-03T17:33:51.258Z,12.50
2018-10-03T17:36:20.413Z,12.40
2018-10-03T17:38:49.909Z,12.30
2018-10-03T17:41:18.812Z,12.30
2018-10-03T17:43:47.898Z,12.20
2018-10-03T17:46:16.847Z,12.00
2018-10-03T17:48:45.804Z,12.00
2018-10-03T17:51:14.675Z,12.00
2018-10-03T17:53:43.562Z,11.90
2018-10-03T17:56:12.583Z,11.70
2018-10-03T17:58:41.463Z,11.70
2018-10-03T18:01:10.375Z,11.50
2018-10-03T18:03:39.278Z,11.40
2018-10-03T18:06:08.259Z,11.30
2018-10-03T18:08:37.153Z,11.20
2018-10-03T18:11:06.126Z,11.10
2018-10-03T18:13:35.190Z,11.10
2018-10-03T18:16:04.187Z,11.10
2018-10-03T18:18:33.171Z,11.10
2018-10-03T18:21:02.111Z,11.00
2018-10-03T18:23:31.239Z,11.00
2018-10-03T18:26:00.335Z,10.90
2018-10-03T18:28:29.542Z,10.90
2018-10-03T18:30:58.475Z,10.70
2018-10-03T18:33:27.370Z,10.80
2018-10-03T18:35:56.298Z,10.70
2018-10-03T18:38:25.218Z,10.50
2018-10-03T18:40:54.242Z,10.40
2018-10-03T18:43:23.399Z,10.40
2018-10-03T18:45:52.343Z,10.40
2018-10-03T18:48:21.586Z,10.30
2018-10-03T18:50:50.749Z,10.20
2018-10-03T18:53:19.634Z,10.20
2018-10-03T18:55:48.619Z,10.10
2018-10-03T18:58:17.672Z,10.10
2018-10-03T19:00:46.579Z,10.10
2018-10-03T19:03:15.679Z,10.00
2018-10-03T19:05:44.576Z,9.90
2018-10-03T19:08:13.920Z,9.80
2018-10-03T19:10:42.787Z,9.60
2018-10-03T19:13:11.687Z,9.50
2018-10-03T19:15:42.719Z,9.50
2018-10-03T19:18:11.791Z,9.50
2018-10-03T19:20:40.745Z,9.50
2018-10-03T19:23:09.637Z,9.40
2018-10-03T19:25:38.639Z,9.40
2018-10-03T19:28:07.713Z,9.30
2018-10-03T19:30:36.667Z,9.20
2018-10-03T19:33:05.563Z,9.10
2018-10-03T19:35:34.562Z,9.00
2018-10-03T19:38:03.434Z,9.00
2018-10-03T19:40:32.485Z,9.00
2018-10-03T19:43:01.378Z,8.90
2018-10-03T19:45:30.311Z,9.00
2018-10-03T19:48:01.412Z,9.00
2018-10-03T19:50:33.819Z,8.90
2018-10-03T19:56:12.991Z,8.90
2018-10-03T19:58:41.907Z,8.90
2018-10-03T20:01:10.789Z,8.90
2018-10-03T20:03:40.105Z,8.80
2018-10-03T20:06:09.127Z,8.80
2018-10-03T20:08:38.191Z,8.70
2018-10-03T20:11:07.198Z,8.50
2018-10-03T20:13:36.572Z,8.40
2018-10-03T20:16:05.698Z,8.30
2018-10-03T20:18:34.692Z,8.40
2018-10-03T20:21:03.756Z,8.40
2018-10-03T20:23:32.574Z,8.40
2018-10-03T20:26:01.479Z,8.40
2018-10-03T20:28:30.397Z,8.50
2018-10-03T20:30:59.418Z,8.30
2018-10-03T20:33:28.547Z,8.30
2018-10-03T20:35:57.579Z,8.20
2018-10-03T20:38:26.473Z,8.20
2018-10-03T20:40:55.431Z,8.10
2018-10-03T20:43:24.434Z,8.10
2018-10-03T20:45:53.436Z,7.90
2018-10-03T20:48:22.378Z,7.80
2018-10-03T20:50:51.419Z,7.70
2018-10-03T20:53:20.302Z,7.60
2018-10-03T20:55:49.330Z,7.60
2018-10-03T20:58:18.270Z,7.60
2018-10-03T21:00:47.199Z,7.70
2018-10-03T21:03:17.146Z,7.70
2018-10-03T21:05:47.067Z,7.60
2018-10-03T21:08:16.034Z,7.60
2018-10-03T21:10:45.011Z,7.50
2018-10-03T21:13:13.883Z,7.40
2018-10-03T21:15:42.824Z,7.50
2018-10-03T21:18:11.691Z,7.50
2018-10-03T21:20:41.667Z,7.40
2018-10-03T21:23:10.572Z,7.20
2018-10-03T21:25:39.539Z,7.20
2018-10-03T21:28:08.464Z,7.10
2018-10-03T21:30:37.426Z,6.90
2018-10-03T21:33:06.682Z,6.90
2018-10-03T21:35:35.647Z,6.90
2018-10-03T21:38:04.831Z,6.90
2018-10-03T21:40:34.003Z,6.80
2018-10-03T21:43:02.919Z,6.70
2018-10-03T21:45:32.294Z,6.80
2018-10-03T21:48:01.231Z,6.90
2018-10-03T21:50:30.284Z,6.90
2018-10-03T21:52:59.263Z,6.80
2018-10-03T21:55:28.211Z,6.90
2018-10-03T21:57:57.231Z,6.70
2018-10-03T22:00:30.346Z,6.60
2018-10-03T22:02:59.319Z,6.60
2018-10-03T22:05:28.270Z,6.60
2018-10-03T22:07:57.811Z,6.50
2018-10-03T22:10:27.007Z,6.40
2018-10-03T22:12:55.923Z,6.40
2018-10-03T22:15:25.962Z,6.40
2018-10-03T22:17:54.854Z,6.20
2018-10-03T22:20:23.848Z,6.10
2018-10-03T22:22:52.850Z,6.10
2018-10-03T22:25:21.750Z,6.10
2018-10-03T22:27:50.629Z,6.10
2018-10-03T22:30:19.490Z,6.20
2018-10-03T22:32:48.362Z,6.10
2018-10-03T22:35:17.303Z,6.10
2018-10-03T22:37:46.192Z,6.20
2018-10-03T22:40:15.042Z,6.20
2018-10-03T22:42:43.936Z,6.10
2018-10-03T22:45:12.882Z,6.00
2018-10-03T22:47:41.847Z,6.00
2018-10-03T22:50:10.714Z,5.90
2018-10-03T22:52:39.656Z,5.80
2018-10-03T22:55:10.212Z,5.80
2018-10-03T22:57:39.151Z,5.70
2018-10-03T23:00:09.052Z,5.60
2018-10-03T23:02:38.034Z,5.60
2018-10-03T23:05:06.955Z,5.60
2018-10-03T23:07:35.805Z,5.60
2018-10-03T23:10:05.638Z,5.60
2018-10-03T23:12:34.542Z,5.60
2018-10-03T23:15:03.470Z,5.70
2018-10-03T23:17:32.458Z,5.60
2018-10-03T23:20:01.348Z,5.60
2018-10-03T23:22:30.239Z,5.60
2018-10-03T23:24:59.262Z,5.60
2018-10-03T23:27:28.118Z,5.40
2018-10-03T23:29:57.099Z,5.30
2018-10-03T23:32:25.971Z,5.30
2018-10-03T23:34:54.963Z,5.30
2018-10-03T23:37:23.858Z,5.30
2018-10-03T23:39:52.774Z,5.20
2018-10-03T23:42:21.657Z,5.10
2018-10-03T23:44:50.585Z,5.10
2018-10-03T23:47:19.646Z,5.00
2018-10-03T23:49:48.600Z,5.00
2018-10-03T23:52:17.518Z,5.00
2018-10-03T23:54:46.507Z,5.00
2018-10-03T23:57:15.506Z,5.00
2018-10-03T23:59:44.415Z,5.00
